EmailTwitter


Observations de surface / France / LFBO (07630)

Régions: Québec | Canada | États-Unis | Europe | France | UK | Ailleurs
Station
Affichage
Infos & localisation pour LFBO (07630) | Aide pour décoder les METARs

Observations prises le 2018-12-15 à 02H30 UTC à TOULOUSE/BLAGNAC, FR (LFBO)

Etat du ciel: couvert.

Température: 3.0 Celsius

Point de rosée: -1.0 Celsius

Humidité relative: 75%

Vents: Variable à 4 km/h ou 2 noeuds.

Pression au niveau moyen de la mer: 102.30 kilopascals.

Visibilité horizontale: 6.21 milles terrestres ou 9.94 kilomètres.

Hauteur du plafond: 305 mètres ( 1000 pieds ).

Observation METAR:

LFBO 150230Z AUTO VRB02KT 9999 BKN010 OVC052 03/M01 Q1023 NOSIG=